Archival Weather

Zhuliany Intl

Zhuliany Intl, Ukraine (UKKK)

Report from: Saturday, February 26, 2022 5:00 PM EET
Current time: Friday, July 1, 2022 10:29 PM EEST

Current weather
Weather history
Weather forecast

Present weatherLight rain
Temperature6.0°C (42.8°F)
Wind chill3.1°C (37.6°F)
Dew point-5.0°C (23.0°F)
Winds 7.8 kts (4 m/s, 8.9 mph) Vrb
Winds variableWinds variable from North-Northeast (30°) to Northwest (320°)
Visibility6.2 mi. (10 km)
Altimeter30.30 in.Hg (1026 mB)
Relative humidity45 %
Density altitude-1,448 ft. (-441 m)
Remarks No significant changes expected in the next two hours
Flight conditions Visual Meteorological Conditions
Raw dataUKKK 261500Z 36004MPS 320V030 9999 -RA NSC 06/M05 Q1026 NOSIG
An unhandled exception has occurred. See browser dev tools for details. Reload 🗙